Time;durP1;ratioP1;P1;durP2;ratioP2;P2;SDS_P1;SDS_P2;PMS_P1;PMS_P2;Temp;Humidity;BMP_temperature;BMP_pressure;BME280_temperature;BME280_humidity;BME280_pressure;Samples;Min_cycle;Max_cycle;Signal;HPM_P1;HPM_P2
2023/06/10 00:01:28;;;;;;;18.48;9.07;;;15.80;99.90;;;;;;5022818;28;20121;-81
2023/06/10 00:03:54;;;;;;;24.73;8.50;;;15.80;99.90;;;;;;5020104;28;20037;-82
2023/06/10 00:06:21;;;;;;;16.02;7.90;;;15.70;99.90;;;;;;5028696;28;20341;-82
2023/06/10 00:08:47;;;;;;;15.85;8.60;;;15.70;99.90;;;;;;5027841;28;20029;-81
2023/06/10 00:11:12;;;;;;;16.77;8.32;;;15.60;99.90;;;;;;5016169;28;20025;-82
2023/06/10 00:13:38;;;;;;;20.08;8.80;;;15.60;99.90;;;;;;5017156;28;20101;-82
2023/06/10 00:16:04;;;;;;;16.30;8.43;;;15.50;99.90;;;;;;5016908;28;20370;-81
2023/06/10 00:18:31;;;;;;;23.23;8.93;;;15.50;99.90;;;;;;5022856;28;20026;-82
2023/06/10 00:20:57;;;;;;;22.13;9.18;;;15.50;99.90;;;;;;5022235;28;20769;-82
2023/06/10 00:23:24;;;;;;;19.27;8.30;;;15.50;99.90;;;;;;5020939;28;20377;-81
2023/06/10 00:25:50;;;;;;;17.85;8.23;;;15.50;99.90;;;;;;5045885;28;20476;-81
2023/06/10 00:28:15;;;;;;;20.17;7.97;;;15.40;99.90;;;;;;5020696;28;20108;-81
2023/06/10 00:30:41;;;;;;;15.88;8.27;;;15.40;99.90;;;;;;5016596;28;20126;-82
2023/06/10 00:33:07;;;;;;;16.63;8.55;;;15.30;99.90;;;;;;5018250;28;20029;-81
2023/06/10 00:35:32;;;;;;;15.13;8.50;;;15.30;99.90;;;;;;5025955;28;20535;-82
2023/06/10 00:37:58;;;;;;;25.08;9.25;;;15.30;99.90;;;;;;5027554;28;20113;-81
2023/06/10 00:40:23;;;;;;;16.15;8.48;;;15.30;99.90;;;;;;5031037;28;20041;-81
2023/06/10 00:42:49;;;;;;;17.95;9.30;;;15.30;99.90;;;;;;5024527;28;20033;-82
2023/06/10 00:45:14;;;;;;;19.55;8.38;;;15.20;99.90;;;;;;5004918;28;20068;-81
2023/06/10 00:47:40;;;;;;;18.95;9.00;;;15.20;99.90;;;;;;5018240;28;20041;-81
2023/06/10 00:50:07;;;;;;;22.42;9.13;;;15.20;99.90;;;;;;5026597;28;20496;-82
2023/06/10 00:52:35;;;;;;;16.85;9.40;;;15.10;99.90;;;;;;5005726;28;20030;-82
2023/06/10 00:55:00;;;;;;;18.65;9.52;;;15.10;99.90;;;;;;5037125;28;20037;-82
2023/06/10 00:57:26;;;;;;;19.05;9.38;;;15.10;99.90;;;;;;4999459;28;20034;-81
2023/06/10 00:59:52;;;;;;;23.05;9.30;;;15.00;99.90;;;;;;5025337;28;20049;-82
2023/06/10 01:02:17;;;;;;;18.63;9.30;;;15.00;99.90;;;;;;5014971;28;20045;-82
2023/06/10 01:04:43;;;;;;;14.50;8.70;;;15.00;99.90;;;;;;5020573;28;20054;-82
2023/06/10 01:07:21;;;;;;;22.35;9.45;;;14.90;99.90;;;;;;5025875;28;20067;-81
2023/06/10 01:10:04;;;;;;;18.10;8.70;;;14.90;99.90;;;;;;5014803;28;20049;-82
2023/06/10 01:12:48;;;;;;;18.90;9.80;;;14.90;99.90;;;;;;5024663;28;20037;-81
2023/06/10 01:15:17;;;;;;;19.55;9.45;;;14.80;99.90;;;;;;5011242;28;20041;-82
2023/06/10 01:18:07;;;;;;;16.45;8.73;;;14.80;99.90;;;;;;5007031;28;20061;-82
2023/06/10 01:20:33;;;;;;;15.50;9.38;;;14.70;99.90;;;;;;5024453;28;20029;-81
2023/06/10 01:23:00;;;;;;;19.60;9.50;;;14.70;99.90;;;;;;5007654;28;20040;-82
2023/06/10 01:25:27;;;;;;;12.30;8.82;;;14.70;99.90;;;;;;5017498;28;20359;-81
2023/06/10 01:28:25;;;;;;;17.77;9.35;;;14.60;99.90;;;;;;5022169;28;20143;-81
2023/06/10 01:30:56;;;;;;;21.23;9.55;;;14.60;99.90;;;;;;5021433;28;20088;-82
2023/06/10 01:33:31;;;;;;;21.93;10.43;;;14.60;99.90;;;;;;5022582;28;20029;-82
2023/06/10 01:35:57;;;;;;;19.52;9.43;;;14.60;99.90;;;;;;5028733;28;20049;-81
2023/06/10 01:38:26;;;;;;;19.42;9.10;;;14.50;99.90;;;;;;5023137;28;20037;-81
2023/06/10 01:40:55;;;;;;;20.23;9.27;;;14.50;99.90;;;;;;5023366;28;20128;-82
2023/06/10 01:43:21;;;;;;;20.75;9.75;;;14.50;99.90;;;;;;5017184;28;20508;-81
2023/06/10 01:45:47;;;;;;;17.10;9.70;;;14.50;99.90;;;;;;5021359;28;20041;-81
2023/06/10 01:48:12;;;;;;;17.38;9.73;;;14.50;99.90;;;;;;5011053;28;20028;-82
2023/06/10 01:50:38;;;;;;;21.02;9.88;;;14.50;99.90;;;;;;5024506;28;20029;-81
2023/06/10 01:53:05;;;;;;;15.57;9.90;;;14.40;99.90;;;;;;5020631;28;20061;-82
2023/06/10 01:55:30;;;;;;;23.65;10.50;;;14.40;99.90;;;;;;5007917;28;20121;-82
2023/06/10 01:57:56;;;;;;;20.25;9.48;;;14.40;99.90;;;;;;5021159;28;20558;-81
2023/06/10 02:00:22;;;;;;;16.00;9.20;;;14.40;99.90;;;;;;5008343;28;20128;-82
2023/06/10 02:02:47;;;;;;;17.55;10.15;;;14.30;99.90;;;;;;5005545;28;20909;-82
2023/06/10 02:05:13;;;;;;;17.23;10.15;;;14.40;99.90;;;;;;5011344;28;20447;-82
2023/06/10 02:07:38;;;;;;;19.02;9.20;;;14.30;99.90;;;;;;5022233;28;20041;-82
2023/06/10 02:10:06;;;;;;;24.45;9.98;;;14.30;99.90;;;;;;5006519;28;20120;-82
2023/06/10 02:12:32;;;;;;;22.10;9.82;;;14.20;99.90;;;;;;5000666;28;20026;-83
2023/06/10 02:14:57;;;;;;;18.42;9.00;;;14.20;99.90;;;;;;5015937;28;20187;-81
2023/06/10 02:17:23;;;;;;;19.75;9.77;;;14.20;99.90;;;;;;5012047;28;20033;-82
2023/06/10 02:19:52;;;;;;;18.42;9.45;;;14.20;99.90;;;;;;5021620;28;20089;-81
2023/06/10 02:22:20;;;;;;;21.40;9.65;;;14.10;99.90;;;;;;5019501;28;20151;-82
2023/06/10 02:24:46;;;;;;;17.02;9.40;;;14.10;99.90;;;;;;5021297;28;20025;-81
2023/06/10 02:27:11;;;;;;;20.08;9.57;;;14.10;99.90;;;;;;5014201;28;20505;-82
2023/06/10 02:29:37;;;;;;;20.58;9.75;;;14.10;99.90;;;;;;5019343;28;20029;-82
2023/06/10 02:32:03;;;;;;;14.35;9.27;;;14.10;99.90;;;;;;5020250;28;20116;-82
2023/06/10 02:34:29;;;;;;;16.70;10.00;;;14.00;99.90;;;;;;5009730;28;20109;-81
2023/06/10 02:36:54;;;;;;;20.75;10.40;;;14.00;99.90;;;;;;5007171;28;20461;-82
2023/06/10 02:39:21;;;;;;;16.98;10.43;;;14.00;99.90;;;;;;5011938;28;20087;-81
2023/06/10 02:41:46;;;;;;;17.33;9.95;;;13.90;99.90;;;;;;5021415;28;20057;-81
2023/06/10 02:44:12;;;;;;;18.42;9.85;;;13.90;99.90;;;;;;5016212;28;20027;-81
2023/06/10 02:46:38;;;;;;;22.40;9.63;;;13.90;99.90;;;;;;5006909;28;20041;-81
2023/06/10 02:49:03;;;;;;;21.58;9.65;;;13.80;99.90;;;;;;5003864;28;20073;-81
2023/06/10 02:51:29;;;;;;;18.15;9.77;;;13.80;99.90;;;;;;5010981;28;20117;-81
2023/06/10 02:53:55;;;;;;;21.30;10.55;;;13.80;99.90;;;;;;5023980;28;20430;-81
2023/06/10 02:56:21;;;;;;;21.58;10.73;;;13.80;99.90;;;;;;5019594;28;20120;-81
2023/06/10 02:58:48;;;;;;;18.27;9.68;;;13.80;99.90;;;;;;5012644;28;20045;-82
2023/06/10 03:01:13;;;;;;;23.48;11.65;;;13.70;99.90;;;;;;5021996;28;20025;-81
2023/06/10 03:03:42;;;;;;;21.85;11.10;;;13.70;99.90;;;;;;5002719;28;20396;-82
2023/06/10 03:06:10;;;;;;;19.70;9.75;;;13.70;99.90;;;;;;5012033;28;20069;-81
2023/06/10 03:08:36;;;;;;;18.23;10.13;;;13.60;99.90;;;;;;5009542;28;20037;-82
2023/06/10 03:11:01;;;;;;;17.60;10.57;;;13.60;99.90;;;;;;5013586;28;20506;-82
2023/06/10 03:13:27;;;;;;;16.98;11.05;;;13.60;99.90;;;;;;5012979;28;20033;-82
2023/06/10 03:15:53;;;;;;;24.38;11.80;;;13.60;99.90;;;;;;5034436;28;20036;-82
2023/06/10 03:18:18;;;;;;;19.60;10.63;;;13.60;99.90;;;;;;5022470;28;20149;-81
2023/06/10 03:20:44;;;;;;;17.38;10.45;;;13.50;99.90;;;;;;5009912;28;20025;-81
2023/06/10 03:23:10;;;;;;;15.40;10.43;;;13.50;99.90;;;;;;5028083;28;20037;-81
2023/06/10 03:25:36;;;;;;;18.10;10.00;;;13.50;99.90;;;;;;5022623;28;20029;-81
2023/06/10 03:28:01;;;;;;;15.57;10.77;;;13.40;99.90;;;;;;5018227;28;20067;-82
2023/06/10 03:30:30;;;;;;;16.33;10.45;;;13.40;99.90;;;;;;5008991;28;20042;-81
2023/06/10 03:32:55;;;;;;;20.65;10.25;;;13.40;99.90;;;;;;5003958;28;20408;-82
2023/06/10 03:35:21;;;;;;;20.42;10.25;;;13.40;99.90;;;;;;5030684;28;20025;-81
2023/06/10 03:37:46;;;;;;;17.58;10.48;;;13.30;99.90;;;;;;5021311;28;20116;-82
2023/06/10 03:40:12;;;;;;;21.08;10.02;;;13.30;99.90;;;;;;5024968;28;20037;-81
2023/06/10 03:42:38;;;;;;;19.80;10.07;;;13.30;99.90;;;;;;5007128;28;20030;-81
2023/06/10 03:45:04;;;;;;;18.33;10.35;;;13.40;99.90;;;;;;5005904;28;20041;-82
2023/06/10 03:47:36;;;;;;;16.80;10.05;;;13.30;99.90;;;;;;5016466;28;20091;-82
2023/06/10 03:50:05;;;;;;;16.17;9.98;;;13.30;99.90;;;;;;5022653;28;20039;-81
2023/06/10 03:52:31;;;;;;;16.80;10.32;;;13.30;99.90;;;;;;5017668;28;20029;-82
2023/06/10 03:54:56;;;;;;;20.48;10.13;;;13.30;99.90;;;;;;5014834;28;20315;-82
2023/06/10 03:57:22;;;;;;;15.68;9.73;;;13.20;99.90;;;;;;5016448;28;20112;-81
2023/06/10 03:59:48;;;;;;;21.05;9.85;;;13.20;99.90;;;;;;5006922;28;20097;-81
2023/06/10 04:02:13;;;;;;;14.98;9.25;;;13.20;99.90;;;;;;5009515;28;20181;-81
2023/06/10 04:04:39;;;;;;;21.30;10.77;;;13.20;99.90;;;;;;5028511;28;20496;-82
2023/06/10 04:07:05;;;;;;;20.77;10.52;;;13.30;99.90;;;;;;5013773;28;20513;-81
2023/06/10 04:09:31;;;;;;;16.45;9.05;;;13.30;99.90;;;;;;5013305;28;20461;-81
2023/06/10 04:11:57;;;;;;;15.60;9.65;;;13.30;99.90;;;;;;5015971;28;20038;-81
2023/06/10 04:14:22;;;;;;;15.13;8.88;;;13.30;99.90;;;;;;5016830;28;20053;-81
2023/06/10 04:16:50;;;;;;;15.85;9.27;;;13.40;99.90;;;;;;5011063;28;20040;-82
2023/06/10 04:19:16;;;;;;;18.95;8.80;;;13.40;99.90;;;;;;5010082;28;20101;-81
2023/06/10 04:21:42;;;;;;;17.98;9.85;;;13.40;99.90;;;;;;5004834;28;20488;-82
2023/06/10 04:24:07;;;;;;;16.75;8.80;;;13.50;99.90;;;;;;5008920;28;20033;-82
2023/06/10 04:26:35;;;;;;;16.67;9.48;;;13.50;99.90;;;;;;4995433;28;20595;-82
2023/06/10 04:29:01;;;;;;;15.50;9.65;;;13.60;99.90;;;;;;5018451;28;20037;-81
2023/06/10 04:31:27;;;;;;;21.48;10.48;;;13.60;99.90;;;;;;5015427;28;20037;-82
2023/06/10 04:33:53;;;;;;;15.27;9.00;;;13.60;99.90;;;;;;5006527;28;20403;-82
2023/06/10 04:36:19;;;;;;;17.80;9.52;;;13.70;99.90;;;;;;5014210;28;20033;-82
2023/06/10 04:38:45;;;;;;;15.32;8.25;;;13.70;99.90;;;;;;5019885;28;20800;-81
2023/06/10 04:41:11;;;;;;;15.57;8.88;;;13.80;99.90;;;;;;5009672;28;20017;-82
2023/06/10 04:43:36;;;;;;;20.42;9.15;;;13.90;99.90;;;;;;5001356;28;20055;-82
2023/06/10 04:46:02;;;;;;;15.57;8.48;;;13.90;99.90;;;;;;5010025;28;20034;-82
2023/06/10 04:48:27;;;;;;;15.00;9.35;;;14.00;99.90;;;;;;5015650;28;20052;-82
2023/06/10 04:50:53;;;;;;;21.08;9.52;;;14.00;99.90;;;;;;5025460;28;20037;-82
2023/06/10 04:53:20;;;;;;;16.35;9.60;;;14.10;99.90;;;;;;5022297;28;20367;-82
2023/06/10 04:55:46;;;;;;;19.20;9.85;;;14.10;99.90;;;;;;5032996;28;20109;-82
2023/06/10 04:58:12;;;;;;;15.38;8.88;;;14.20;99.90;;;;;;5027821;28;20112;-81
2023/06/10 05:00:37;;;;;;;18.55;9.48;;;14.20;99.90;;;;;;5004017;28;20043;-81
2023/06/10 05:03:03;;;;;;;16.70;9.30;;;14.30;99.90;;;;;;5024180;28;20536;-82
2023/06/10 05:05:28;;;;;;;14.70;8.80;;;14.30;99.90;;;;;;5019601;28;20531;-82
2023/06/10 05:07:54;;;;;;;17.42;9.40;;;14.40;99.90;;;;;;5021681;28;20493;-81
2023/06/10 05:10:19;;;;;;;16.48;8.93;;;14.50;99.90;;;;;;5023523;28;20242;-81
2023/06/10 05:12:45;;;;;;;18.05;10.10;;;14.50;99.90;;;;;;5021110;28;20128;-82
2023/06/10 05:15:11;;;;;;;22.83;11.10;;;14.60;99.90;;;;;;5023062;28;20396;-82
2023/06/10 05:17:37;;;;;;;16.80;9.50;;;14.70;99.90;;;;;;5020355;28;20040;-82
2023/06/10 05:20:03;;;;;;;22.40;10.68;;;14.70;99.90;;;;;;5023352;28;20025;-81
2023/06/10 05:22:29;;;;;;;21.35;9.88;;;14.80;99.90;;;;;;5031845;28;20113;-82
2023/06/10 05:24:55;;;;;;;16.38;10.43;;;14.90;99.90;;;;;;5023476;28;20097;-81
2023/06/10 05:27:21;;;;;;;20.90;10.07;;;15.00;99.90;;;;;;4997534;28;20465;-81
2023/06/10 05:29:47;;;;;;;21.67;10.73;;;15.00;99.90;;;;;;5019461;28;20572;-82
2023/06/10 05:32:13;;;;;;;19.50;10.60;;;15.10;99.90;;;;;;5023327;28;20205;-81
2023/06/10 05:34:38;;;;;;;18.80;10.32;;;15.20;99.90;;;;;;5025342;28;20044;-81
2023/06/10 05:37:04;;;;;;;22.55;10.73;;;15.30;99.90;;;;;;5009421;28;20433;-81
2023/06/10 05:39:30;;;;;;;30.33;11.40;;;15.30;99.90;;;;;;5010350;28;20045;-81
2023/06/10 05:41:58;;;;;;;22.20;10.48;;;15.40;99.90;;;;;;5015856;28;20478;-82
2023/06/10 05:44:24;;;;;;;17.75;10.07;;;15.40;99.90;;;;;;5017334;28;20469;-82
2023/06/10 05:46:50;;;;;;;17.33;9.73;;;15.50;99.90;;;;;;4990811;28;20095;-81
2023/06/10 05:49:16;;;;;;;21.88;10.52;;;15.60;99.90;;;;;;5009535;28;20186;-81
2023/06/10 05:51:41;;;;;;;23.55;9.95;;;15.60;99.90;;;;;;5024245;28;20430;-81
2023/06/10 05:54:07;;;;;;;20.80;8.93;;;15.70;99.90;;;;;;5020434;28;20053;-82
2023/06/10 05:56:33;;;;;;;20.23;10.07;;;15.90;99.90;;;;;;5021159;28;20029;-82
2023/06/10 05:58:58;;;;;;;18.38;9.13;;;16.00;99.90;;;;;;5022269;28;20040;-83
2023/06/10 06:01:24;;;;;;;24.23;9.88;;;16.00;99.90;;;;;;4991537;28;20045;-82
2023/06/10 06:03:50;;;;;;;16.70;9.02;;;16.10;99.90;;;;;;5023109;28;20460;-82
2023/06/10 06:06:16;;;;;;;22.48;10.38;;;16.20;99.90;;;;;;5018670;28;20049;-82
2023/06/10 06:08:41;;;;;;;856.72;621.15;;;16.20;99.90;;;;;;5042922;28;20029;-82
2023/06/10 06:11:07;;;;;;;265.33;150.80;;;16.40;99.90;;;;;;5006756;28;20021;-81
2023/06/10 06:13:33;;;;;;;22.45;13.02;;;16.50;99.90;;;;;;5016635;28;20034;-82
2023/06/10 06:15:58;;;;;;;21.90;10.60;;;16.60;99.90;;;;;;5019704;28;20029;-82
2023/06/10 06:18:24;;;;;;;15.73;9.88;;;16.70;99.90;;;;;;5023726;28;20454;-83
2023/06/10 06:20:50;;;;;;;21.55;9.70;;;16.80;99.90;;;;;;5016527;28;20033;-83
2023/06/10 06:23:15;;;;;;;18.73;8.82;;;16.90;99.90;;;;;;5013002;28;20025;-81
2023/06/10 06:25:41;;;;;;;366.38;223.82;;;17.00;99.90;;;;;;5021284;28;20037;-82
2023/06/10 06:28:08;;;;;;;64.05;34.83;;;17.10;99.90;;;;;;5014973;28;20490;-82
2023/06/10 06:30:35;;;;;;;27.65;14.60;;;17.20;99.90;;;;;;4996397;28;20408;-82
2023/06/10 06:33:00;;;;;;;20.05;8.63;;;17.30;99.90;;;;;;5028183;28;20544;-83
2023/06/10 06:35:26;;;;;;;13.80;8.63;;;17.50;99.90;;;;;;4990668;28;20249;-82
2023/06/10 06:37:51;;;;;;;25.05;8.60;;;17.60;99.90;;;;;;4994246;28;20033;-83
2023/06/10 06:40:17;;;;;;;17.27;8.52;;;17.70;99.90;;;;;;5022557;28;20104;-83
2023/06/10 06:42:43;;;;;;;603.08;389.13;;;17.90;99.90;;;;;;5022329;28;20030;-83
2023/06/10 06:45:09;;;;;;;147.27;73.55;;;18.10;99.90;;;;;;5006622;28;20052;-83
2023/06/10 06:47:34;;;;;;;20.92;10.40;;;18.20;99.90;;;;;;5033987;28;20041;-83
2023/06/10 06:50:00;;;;;;;17.02;10.40;;;18.30;99.90;;;;;;5025994;28;20025;-84
2023/06/10 06:52:26;;;;;;;18.52;8.23;;;18.40;99.90;;;;;;5018594;28;20029;-83
2023/06/10 06:54:51;;;;;;;17.00;8.85;;;18.50;99.90;;;;;;5016521;28;20029;-83
2023/06/10 06:57:17;;;;;;;23.75;11.00;;;18.70;99.90;;;;;;5016445;28;20200;-83
2023/06/10 06:59:42;;;;;;;18.55;7.65;;;18.80;99.90;;;;;;5015896;28;20021;-84
2023/06/10 07:02:08;;;;;;;16.02;8.20;;;18.90;99.90;;;;;;5012503;28;20555;-84
2023/06/10 07:04:33;;;;;;;16.73;8.90;;;19.00;99.90;;;;;;5023204;28;20025;-84
2023/06/10 07:06:59;;;;;;;16.38;7.00;;;19.10;99.90;;;;;;5003980;28;20041;-83
2023/06/10 07:09:24;;;;;;;17.27;7.10;;;19.30;99.90;;;;;;5035863;28;20468;-84
2023/06/10 07:11:50;;;;;;;14.98;7.90;;;19.50;99.90;;;;;;5011311;28;20112;-83
2023/06/10 07:14:16;;;;;;;15.25;7.30;;;19.60;99.90;;;;;;5022170;28;20039;-83
2023/06/10 07:16:41;;;;;;;14.80;7.03;;;19.80;99.90;;;;;;5021125;28;20037;-84
2023/06/10 07:19:07;;;;;;;16.95;7.20;;;20.00;99.90;;;;;;5005959;28;20043;-83
2023/06/10 07:21:33;;;;;;;12.90;7.10;;;20.20;99.90;;;;;;5010409;28;20037;-82
2023/06/10 07:23:59;;;;;;;12.23;6.45;;;20.50;99.90;;;;;;5007680;28;20021;-83
2023/06/10 07:26:25;;;;;;;12.95;6.57;;;20.60;99.90;;;;;;4999970;28;20052;-83
2023/06/10 07:28:51;;;;;;;16.02;6.45;;;21.10;99.90;;;;;;5014470;28;21058;-82
2023/06/10 07:31:17;;;;;;;9.02;5.70;;;22.40;99.90;;;;;;5013374;28;20060;-83
2023/06/10 07:33:43;;;;;;;12.98;5.60;;;25.00;97.00;;;;;;5002029;28;20030;-83
2023/06/10 07:36:09;;;;;;;9.55;4.90;;;27.90;92.70;;;;;;5004764;28;20029;-83
2023/06/10 07:38:35;;;;;;;8.45;4.85;;;30.40;82.50;;;;;;5002438;28;20030;-84
2023/06/10 07:41:00;;;;;;;6.07;4.30;;;32.40;69.20;;;;;;4999631;28;20465;-84
2023/06/10 07:43:26;;;;;;;9.27;4.28;;;34.10;62.80;;;;;;4999202;28;20116;-84
2023/06/10 07:45:52;;;;;;;7.13;3.95;;;35.70;56.50;;;;;;5007492;28;20032;-83
2023/06/10 07:48:18;;;;;;;9.55;4.18;;;36.50;52.30;;;;;;5017910;28;20196;-83
2023/06/10 07:50:44;;;;;;;10.05;4.38;;;37.20;49.90;;;;;;5017296;28;20026;-84
2023/06/10 07:53:10;;;;;;;8.77;4.15;;;37.70;45.90;;;;;;5010945;28;20511;-83
2023/06/10 07:55:35;;;;;;;7.78;4.00;;;38.80;44.10;;;;;;5014238;28;20052;-83
2023/06/10 07:58:01;;;;;;;7.80;4.10;;;39.10;41.90;;;;;;5012825;28;20037;-84
2023/06/10 08:00:26;;;;;;;9.02;4.32;;;39.60;40.70;;;;;;5022331;28;20125;-84
2023/06/10 08:02:52;;;;;;;9.27;3.90;;;39.10;41.00;;;;;;5016945;28;20046;-84
2023/06/10 08:05:18;;;;;;;6.50;3.78;;;39.90;40.60;;;;;;5024601;28;20120;-85
2023/06/10 08:07:45;;;;;;;6.95;3.75;;;40.70;40.40;;;;;;5015525;28;20044;-83
2023/06/10 08:10:11;;;;;;;6.72;3.75;;;41.40;38.50;;;;;;5011433;28;20461;-83
2023/06/10 08:12:37;;;;;;;7.47;3.65;;;41.20;37.30;;;;;;5019213;28;20107;-83
2023/06/10 08:15:03;;;;;;;6.45;3.17;;;41.90;36.00;;;;;;5016381;28;20284;-84
2023/06/10 08:17:30;;;;;;;6.97;3.63;;;42.30;36.50;;;;;;5017523;28;20108;-84
2023/06/10 08:19:56;;;;;;;7.38;3.47;;;42.00;34.50;;;;;;5025429;28;20036;-84
2023/06/10 08:22:22;;;;;;;6.38;3.20;;;42.40;34.50;;;;;;5000974;28;20378;-85
2023/06/10 08:24:47;;;;;;;6.28;3.35;;;42.90;33.60;;;;;;5016021;28;20204;-84
2023/06/10 08:27:13;;;;;;;4.53;3.25;;;43.30;33.80;;;;;;5017045;28;20045;-85
2023/06/10 08:29:39;;;;;;;5.97;3.67;;;43.90;33.40;;;;;;5017433;28;20030;-86
2023/06/10 08:32:05;;;;;;;5.57;3.10;;;44.00;32.50;;;;;;5015845;28;20025;-84
2023/06/10 08:34:34;;;;;;;4.85;3.45;;;44.30;31.60;;;;;;5025601;28;20018;-84
2023/06/10 08:36:59;;;;;;;8.88;3.47;;;44.60;30.20;;;;;;4998262;28;20381;-84
2023/06/10 08:39:25;;;;;;;5.80;3.55;;;44.60;30.50;;;;;;5011730;28;20037;-85
2023/06/10 08:42:05;;;;;;;5.25;3.42;;;44.80;32.20;;;;;;5012009;28;20397;-84
2023/06/10 08:44:31;;;;;;;7.45;3.70;;;44.80;29.60;;;;;;5008144;28;20447;-85
2023/06/10 08:47:00;;;;;;;5.35;3.42;;;45.50;30.90;;;;;;5005909;28;20087;-84
2023/06/10 08:49:29;;;;;;;5.93;3.45;;;45.80;31.00;;;;;;5014367;28;20018;-82
2023/06/10 08:52:03;;;;;;;4.78;3.47;;;45.50;29.20;;;;;;5005924;28;20073;-85
2023/06/10 08:54:34;;;;;;;5.68;3.25;;;45.90;29.00;;;;;;5008794;28;20029;-84
2023/06/10 08:57:03;;;;;;;5.50;3.63;;;46.00;29.20;;;;;;5006129;28;20350;-85
2023/06/10 08:59:29;;;;;;;5.63;3.33;;;45.90;28.30;;;;;;5018637;28;20084;-85
2023/06/10 09:01:55;;;;;;;7.18;3.55;;;46.50;29.90;;;;;;5017138;28;20045;-84
2023/06/10 09:04:20;;;;;;;6.55;3.70;;;46.70;27.70;;;;;;5011571;28;20033;-85
2023/06/10 09:06:48;;;;;;;6.50;3.60;;;47.20;27.80;;;;;;5013509;28;20243;-84
2023/06/10 09:09:14;;;;;;;6.10;3.30;;;47.50;28.00;;;;;;5013682;28;20033;-84
2023/06/10 09:11:42;;;;;;;5.65;3.10;;;47.50;28.20;;;;;;5018517;28;20103;-83
2023/06/10 09:14:08;;;;;;;5.82;3.60;;;47.80;26.90;;;;;;5016811;28;20041;-85
2023/06/10 09:16:34;;;;;;;5.03;3.35;;;47.80;26.50;;;;;;5012743;28;20033;-85
2023/06/10 09:19:00;;;;;;;4.22;3.30;;;47.90;27.40;;;;;;5014863;28;20372;-83
2023/06/10 09:21:26;;;;;;;6.43;3.20;;;48.30;28.40;;;;;;5018581;28;20253;-84
2023/06/10 09:23:52;;;;;;;8.00;3.40;;;48.40;27.00;;;;;;5016822;28;20124;-83
2023/06/10 09:26:18;;;;;;;6.95;3.50;;;48.80;25.50;;;;;;5006243;28;20029;-84
2023/06/10 09:29:03;;;;;;;5.43;3.42;;;48.80;26.40;;;;;;5017601;28;20443;-85
2023/06/10 09:31:29;;;;;;;5.63;3.35;;;48.20;26.60;;;;;;5021926;28;20034;-83
2023/06/10 09:34:05;;;;;;;5.20;3.17;;;48.20;26.90;;;;;;5017358;28;20029;-83
2023/06/10 09:36:31;;;;;;;4.75;3.30;;;48.30;26.40;;;;;;5014982;28;20384;-85
2023/06/10 09:38:57;;;;;;;6.35;3.45;;;48.50;27.10;;;;;;5018250;28;20233;-82
2023/06/10 09:41:32;;;;;;;3.58;3.05;;;49.00;27.70;;;;;;5017730;28;20218;-81
2023/06/10 09:43:58;;;;;;;6.72;3.40;;;49.30;25.40;;;;;;5018310;28;20025;-83
2023/06/10 09:46:23;;;;;;;5.78;3.67;;;49.00;26.10;;;;;;5018325;28;20677;-83
2023/06/10 09:48:49;;;;;;;4.22;3.30;;;48.90;26.50;;;;;;5015410;28;20116;-84
2023/06/10 09:51:17;;;;;;;4.78;3.35;;;48.70;26.60;;;;;;5015230;28;20116;-85
2023/06/10 09:53:42;;;;;;;3.10;2.78;;;48.80;26.40;;;;;;5014410;28;20140;-82
2023/06/10 09:56:08;;;;;;;3.58;2.97;;;49.00;26.50;;;;;;4995254;28;20037;-82
2023/06/10 09:58:43;;;;;;;5.13;3.17;;;48.60;26.00;;;;;;5015809;28;20469;-82
2023/06/10 10:01:10;;;;;;;4.68;3.20;;;48.60;27.20;;;;;;5012058;28;20045;-83
2023/06/10 10:03:50;;;;;;;3.53;3.17;;;48.80;26.80;;;;;;5011557;28;20053;-82
2023/06/10 10:06:18;;;;;;;4.88;3.20;;;49.10;25.40;;;;;;5010778;28;20166;-82
2023/06/10 10:08:45;;;;;;;4.07;3.20;;;49.40;26.40;;;;;;5007604;28;20089;-83
2023/06/10 10:11:11;;;;;;;4.38;3.13;;;49.30;25.80;;;;;;4991785;28;20029;-82
2023/06/10 10:13:37;;;;;;;5.35;3.13;;;49.40;26.10;;;;;;5009655;28;20025;-82
2023/06/10 10:16:16;;;;;;;3.83;3.30;;;49.50;25.70;;;;;;5020562;28;20033;-84
2023/06/10 10:18:45;;;;;;;6.53;3.40;;;49.40;24.90;;;;;;5011433;28;20030;-82
2023/06/10 10:21:13;;;;;;;5.05;3.00;;;49.40;25.10;;;;;;5016679;28;20025;-81
2023/06/10 10:23:56;;;;;;;3.90;3.20;;;49.30;25.70;;;;;;5012130;28;20123;-82
2023/06/10 10:26:22;;;;;;;6.40;3.40;;;49.60;25.70;;;;;;5008808;28;20405;-82
2023/06/10 10:28:58;;;;;;;4.43;3.08;;;49.70;26.20;;;;;;5017837;28;20091;-82
2023/06/10 10:31:26;;;;;;;4.80;3.10;;;49.70;25.50;;;;;;5010416;28;20049;-83
2023/06/10 10:33:58;;;;;;;4.25;3.38;;;49.90;25.60;;;;;;5013210;28;20029;-83
2023/06/10 10:36:25;;;;;;;5.20;3.53;;;49.00;24.70;;;;;;5005823;28;20046;-82
2023/06/10 10:38:51;;;;;;;3.20;2.90;;;48.60;25.70;;;;;;5010462;28;20037;-82
2023/06/10 10:41:17;;;;;;;4.95;3.22;;;48.00;25.50;;;;;;5010722;28;20515;-83
2023/06/10 10:43:45;;;;;;;4.40;3.08;;;48.20;26.60;;;;;;5019228;28;20025;-81
2023/06/10 10:46:17;;;;;;;3.13;2.83;;;48.40;25.60;;;;;;5010788;28;20068;-83
2023/06/10 10:48:44;;;;;;;3.30;2.97;;;47.80;24.90;;;;;;5013381;28;20172;-83
2023/06/10 10:51:10;;;;;;;3.50;3.20;;;47.20;25.60;;;;;;5011587;28;20057;-82
2023/06/10 10:53:39;;;;;;;5.65;3.28;;;47.60;26.40;;;;;;5020560;28;20127;-83
2023/06/10 10:56:13;;;;;;;3.65;3.00;;;47.80;26.90;;;;;;5022379;28;20034;-81
2023/06/10 10:58:39;;;;;;;5.18;3.33;;;47.40;25.50;;;;;;5007809;28;20052;-82
2023/06/10 11:01:12;;;;;;;3.15;2.60;;;47.50;26.50;;;;;;5009229;28;20026;-82
2023/06/10 11:03:45;;;;;;;4.15;2.80;;;47.00;25.70;;;;;;4995210;28;20151;-81
2023/06/10 11:06:18;;;;;;;3.47;2.92;;;46.20;26.50;;;;;;5007202;28;20119;-80
2023/06/10 11:08:43;;;;;;;4.07;2.58;;;45.60;25.80;;;;;;5016729;28;20469;-80
2023/06/10 11:11:49;;;;;;;4.60;2.90;;;45.00;26.60;;;;;;5017262;28;20033;-81
2023/06/10 11:14:28;;;;;;;4.05;2.95;;;45.30;26.60;;;;;;4995571;28;20038;-82
2023/06/10 11:16:57;;;;;;;3.47;2.90;;;44.90;25.60;;;;;;5014253;28;20079;-83
2023/06/10 11:19:34;;;;;;;6.80;2.55;;;45.00;26.50;;;;;;5014128;28;20103;-82
2023/06/10 11:22:07;;;;;;;4.30;2.78;;;44.40;26.60;;;;;;5008987;28;20576;-83
2023/06/10 11:24:33;;;;;;;3.00;2.70;;;43.50;28.00;;;;;;5012144;28;20113;-84
2023/06/10 11:27:38;;;;;;;5.32;3.15;;;43.10;28.10;;;;;;4997331;28;20672;-82
2023/06/10 11:30:03;;;;;;;4.22;3.58;;;40.70;29.80;;;;;;4976356;28;20053;-83
2023/06/10 11:32:31;;;;;;;6.32;3.33;;;39.40;32.40;;;;;;4999435;28;20033;-83
2023/06/10 11:34:57;;;;;;;6.20;3.03;;;38.00;32.30;;;;;;5012220;28;20366;-84
2023/06/10 11:37:23;;;;;;;4.88;3.30;;;36.70;35.20;;;;;;5015149;28;20037;-83
2023/06/10 11:39:52;;;;;;;3.80;3.22;;;36.10;36.00;;;;;;5014915;28;20029;-83
2023/06/10 11:42:19;;;;;;;3.72;2.85;;;35.80;37.40;;;;;;5012852;28;20108;-84
2023/06/10 11:44:52;;;;;;;6.30;2.95;;;35.70;36.30;;;;;;5029215;28;20125;-83
2023/06/10 11:47:19;;;;;;;7.35;3.03;;;35.50;36.50;;;;;;4997693;28;20033;-82
2023/06/10 11:49:45;;;;;;;5.68;3.47;;;35.50;35.10;;;;;;5020521;28;20342;-82
2023/06/10 11:52:12;;;;;;;4.85;3.47;;;35.00;36.80;;;;;;5021915;28;20373;-83
2023/06/10 11:54:38;;;;;;;4.32;3.35;;;34.80;36.50;;;;;;5013768;28;20532;-82
2023/06/10 11:57:04;;;;;;;5.88;3.78;;;34.40;37.80;;;;;;5010553;28;20041;-83
2023/06/10 11:59:30;;;;;;;3.53;3.22;;;34.20;37.00;;;;;;5022314;28;20036;-84
2023/06/10 12:01:56;;;;;;;5.10;3.42;;;34.40;38.40;;;;;;5023469;28;20046;-83
2023/06/10 12:04:22;;;;;;;3.88;3.20;;;34.40;38.60;;;;;;5019150;28;20275;-83
2023/06/10 12:06:49;;;;;;;4.00;3.20;;;34.50;37.60;;;;;;5001502;28;20673;-84
2023/06/10 12:09:19;;;;;;;4.35;3.40;;;34.80;38.20;;;;;;5020421;28;20505;-82
2023/06/10 12:11:48;;;;;;;4.18;3.47;;;34.50;37.60;;;;;;5018983;28;20037;-83
2023/06/10 12:14:14;;;;;;;4.50;3.15;;;34.50;36.30;;;;;;5014920;28;20127;-83
2023/06/10 12:16:39;;;;;;;3.97;3.58;;;34.00;38.10;;;;;;5017026;28;20061;-83
2023/06/10 12:19:06;;;;;;;4.40;3.35;;;34.10;38.50;;;;;;5016300;28;20503;-83
2023/06/10 12:21:35;;;;;;;4.22;3.22;;;34.30;38.50;;;;;;5019128;28;20022;-83
2023/06/10 12:24:05;;;;;;;6.13;3.65;;;34.20;38.40;;;;;;5016823;28;20034;-84
2023/06/10 12:26:48;;;;;;;4.10;3.70;;;34.40;38.90;;;;;;5005149;28;20108;-85
2023/06/10 12:29:18;;;;;;;3.90;3.30;;;34.70;38.50;;;;;;5003452;28;20033;-83
2023/06/10 12:32:05;;;;;;;3.58;3.20;;;34.80;39.00;;;;;;5016538;28;20069;-83
2023/06/10 12:34:33;;;;;;;5.63;3.60;;;34.30;36.20;;;;;;5023132;28;20123;-83
2023/06/10 12:37:00;;;;;;;7.93;3.50;;;34.20;38.80;;;;;;5024543;28;20039;-83
2023/06/10 12:39:26;;;;;;;4.35;3.40;;;34.20;38.50;;;;;;5016944;28;20366;-82